This is the latest recevied weather packets stored in our database for station/object WE8M. If no packets are shown the sender has not sent any weather packets the latest 10 day(s).
| Time | Temp. | Humidity | Pressure | Rain* | Wind** | Luminosity | Snow |
|---|---|---|---|---|---|---|---|
| 1777603022 | 5.56° C | 92% | 1016.3 hPa | 0 mm | - | - | - |
| 1777602717 | 6.11° C | 92% | 1016.4 hPa | 0 mm | - | - | - |
| 1777602412 | 6.11° C | 91% | 1016.3 hPa | 0 mm | - | - | - |
| 1777602109 | 6.11° C | 91% | 1016.4 hPa | 0 mm | - | - | - |
| 1777587233 | 13.89° C | 44% | 1015.5 hPa | 0 mm | - | - | - |
| 1777586625 | 14.44° C | 39% | 1015.6 hPa | 0 mm | - | - | - |
| 1777586019 | 14.44° C | 38% | 1015.7 hPa | 0 mm | - | - | - |
| 1777583904 | 14.44° C | 43% | 1015.6 hPa | 0 mm | - | - | - |
| 1777583600 | 14.44° C | 42% | 1015.6 hPa | 0 mm | - | - | - |
| 1777580266 | 13.89° C | 43% | 1016.1 hPa | 0 mm | - | - | - |
| 1777579962 | 14.44° C | 42% | 1016 hPa | 0 mm | - | - | - |
| 1777579657 | 15° C | 43% | 1016 hPa | 0 mm | - | - | - |
| 1777577534 | 12.78° C | 47% | 1016.3 hPa | 0 mm | - | - | - |
| 1777576927 | 11.67° C | 51% | 1016.2 hPa | 0 mm | - | - | - |
| 1777574793 | 13.33° C | 58% | 1016.4 hPa | 0 mm | - | - | - |
| 1777573881 | 12.78° C | 52% | 1016.4 hPa | 0 mm | - | - | - |
| 1777573576 | 12.78° C | 50% | 1016.3 hPa | 0 mm | - | - | - |
| 1777572062 | 12.22° C | 60% | 1016.1 hPa | 0 mm | - | - | - |
| 1777571761 | 12.22° C | 62% | 1016.2 hPa | 0 mm | - | - | - |
| 1777570851 | 11.11° C | 63% | 1016.5 hPa | 0 mm | - | - | - |
| 1777570245 | 11.67° C | 65% | 1016.5 hPa | 0 mm | - | - | - |
| 1777569944 | 12.22° C | 63% | 1016.5 hPa | 0 mm | - | - | - |
| 1777569337 | 11.67° C | 71% | 1016.7 hPa | 0 mm | - | - | - |
| 1777569033 | 11.11° C | 69% | 1016.6 hPa | 0 mm | - | - | - |
| 1777568730 | 11.11° C | 68% | 1016.8 hPa | 0 mm | - | - | - |
* Rain latest hour (hover to see other rain measurements)
** Current wind speed in m/s (hover to see current wind gust speed)